Time;durP1;ratioP1;P1;durP2;ratioP2;P2;SDS_P1;SDS_P2;PMS_P1;PMS_P2;Temp;Humidity;BMP_temperature;BMP_pressure;BME280_temperature;BME280_humidity;BME280_pressure;Samples;Min_cycle;Max_cycle;Signal;HPM_P1;HPM_P2
2022/10/07 00:01:59;;;;;;;;;;;21.30;46.60;;;;;;485786;245;1205;-53
2022/10/07 00:04:00;;;;;;;;;;;21.30;46.70;;;;;;485465;245;1229;-53
2022/10/07 00:06:02;;;;;;;;;;;21.30;46.70;;;;;;485651;245;1164;-53
2022/10/07 00:08:03;;;;;;;;;;;21.30;46.70;;;;;;485421;245;1200;-54
2022/10/07 00:10:04;;;;;;;;;;;21.30;46.70;;;;;;485574;245;1276;-53
2022/10/07 00:12:06;;;;;;;;;;;21.30;46.70;;;;;;485741;245;1263;-53
2022/10/07 00:14:07;;;;;;;;;;;21.30;46.60;;;;;;485756;245;2191;-54
2022/10/07 00:16:08;;;;;;;;;;;21.30;46.70;;;;;;485798;245;1177;-53
2022/10/07 00:18:10;;;;;;;;;;;21.30;46.70;;;;;;485701;245;1201;-53
2022/10/07 00:20:11;;;;;;;;;;;21.30;46.70;;;;;;485352;245;1078;-53
2022/10/07 00:22:12;;;;;;;;;;;21.30;46.70;;;;;;485797;245;1161;-54
2022/10/07 00:24:14;;;;;;;;;;;21.30;46.70;;;;;;485365;245;1183;-54
2022/10/07 00:26:15;;;;;;;;;;;21.30;46.70;;;;;;485417;245;1208;-53
2022/10/07 00:28:17;;;;;;;;;;;21.30;46.70;;;;;;485363;245;1339;-54
2022/10/07 00:30:18;;;;;;;;;;;21.30;46.70;;;;;;485694;245;1108;-54
2022/10/07 00:32:19;;;;;;;;;;;21.30;46.70;;;;;;485775;245;1218;-54
2022/10/07 00:34:21;;;;;;;;;;;21.30;46.60;;;;;;485492;245;2210;-53
2022/10/07 00:36:22;;;;;;;;;;;21.30;46.70;;;;;;485352;245;1109;-53
2022/10/07 00:38:24;;;;;;;;;;;21.30;46.70;;;;;;485794;245;1215;-53
2022/10/07 00:40:25;;;;;;;;;;;21.30;46.70;;;;;;485389;245;1364;-53
2022/10/07 00:42:28;;;;;;;;;;;21.30;46.80;;;;;;485380;245;1099;-54
2022/10/07 00:44:28;;;;;;;;;;;21.30;46.80;;;;;;485666;246;2444;-53
2022/10/07 00:46:29;;;;;;;;;;;21.30;46.80;;;;;;485578;245;1142;-54
2022/10/07 00:48:30;;;;;;;;;;;21.30;46.70;;;;;;485370;245;1427;-54
2022/10/07 00:50:32;;;;;;;;;;;21.30;46.70;;;;;;485780;245;1255;-53
2022/10/07 00:52:33;;;;;;;;;;;21.30;46.70;;;;;;485352;245;1075;-53
2022/10/07 00:54:34;;;;;;;;;;;21.30;46.80;;;;;;485782;245;2199;-53
2022/10/07 00:56:36;;;;;;;;;;;21.30;46.80;;;;;;485482;245;1349;-54
2022/10/07 00:58:37;;;;;;;;;;;21.30;46.80;;;;;;485341;245;1278;-53
2022/10/07 01:00:38;;;;;;;;;;;21.30;46.90;;;;;;485623;245;1389;-53
2022/10/07 01:02:39;;;;;;;;;;;21.30;46.80;;;;;;485296;245;1231;-53
2022/10/07 01:04:41;;;;;;;;;;;21.30;46.80;;;;;;485285;245;1430;-53
2022/10/07 01:06:44;;;;;;;;;;;21.30;46.80;;;;;;485533;245;1366;-53
2022/10/07 01:08:44;;;;;;;;;;;21.30;46.80;;;;;;485538;246;2118;-54
2022/10/07 01:10:45;;;;;;;;;;;21.30;46.80;;;;;;485732;245;1283;-54
2022/10/07 01:12:46;;;;;;;;;;;21.30;46.80;;;;;;485747;245;1406;-54
2022/10/07 01:14:48;;;;;;;;;;;21.30;46.80;;;;;;485311;245;2152;-53
2022/10/07 01:16:49;;;;;;;;;;;21.30;46.80;;;;;;485373;245;1253;-54
2022/10/07 01:18:51;;;;;;;;;;;21.30;46.80;;;;;;485686;245;1340;-53
2022/10/07 01:20:52;;;;;;;;;;;21.30;46.80;;;;;;485250;245;2403;-53
2022/10/07 01:22:53;;;;;;;;;;;21.30;46.90;;;;;;485322;245;1252;-54
2022/10/07 01:24:54;;;;;;;;;;;21.30;46.80;;;;;;485761;245;1296;-54
2022/10/07 01:26:56;;;;;;;;;;;21.30;46.90;;;;;;485785;245;1087;-53
2022/10/07 01:28:57;;;;;;;;;;;21.40;46.90;;;;;;485333;245;1207;-53
2022/10/07 01:30:58;;;;;;;;;;;21.30;46.80;;;;;;485632;245;1199;-54
2022/10/07 01:33:01;;;;;;;;;;;21.30;46.90;;;;;;485769;245;1304;-53
2022/10/07 01:35:01;;;;;;;;;;;21.30;46.90;;;;;;485396;245;2168;-54
2022/10/07 01:37:02;;;;;;;;;;;21.30;46.90;;;;;;485334;245;1220;-54
2022/10/07 01:39:04;;;;;;;;;;;21.30;46.90;;;;;;485330;245;1295;-53
2022/10/07 01:41:05;;;;;;;;;;;21.30;46.90;;;;;;485779;245;1223;-54
2022/10/07 01:43:06;;;;;;;;;;;21.30;46.90;;;;;;485792;245;1342;-54
2022/10/07 01:45:08;;;;;;;;;;;21.30;46.90;;;;;;485470;245;1184;-54
2022/10/07 01:47:09;;;;;;;;;;;21.30;46.90;;;;;;485754;245;1251;-54
2022/10/07 01:49:10;;;;;;;;;;;21.30;46.90;;;;;;485310;245;1265;-53
2022/10/07 01:51:12;;;;;;;;;;;21.30;46.90;;;;;;485773;245;1282;-54
2022/10/07 01:53:14;;;;;;;;;;;21.30;46.90;;;;;;485757;245;1319;-53
2022/10/07 01:55:14;;;;;;;;;;;21.30;47.00;;;;;;485729;245;2116;-53
2022/10/07 01:57:17;;;;;;;;;;;21.30;46.90;;;;;;485676;245;1223;-53
2022/10/07 01:59:17;;;;;;;;;;;21.30;46.90;;;;;;485358;246;2404;-54
2022/10/07 02:01:18;;;;;;;;;;;21.30;46.80;;;;;;485775;245;1218;-54
2022/10/07 02:03:20;;;;;;;;;;;21.30;46.80;;;;;;485740;245;1340;-54
2022/10/07 02:05:21;;;;;;;;;;;21.30;46.90;;;;;;485484;245;1264;-53
2022/10/07 02:07:22;;;;;;;;;;;21.30;46.90;;;;;;485325;245;1532;-54
2022/10/07 02:09:23;;;;;;;;;;;21.30;46.90;;;;;;485304;245;1272;-53
2022/10/07 02:11:26;;;;;;;;;;;21.30;46.90;;;;;;485657;245;1263;-53
2022/10/07 02:13:27;;;;;;;;;;;21.30;46.90;;;;;;485659;245;1392;-53
2022/10/07 02:15:27;;;;;;;;;;;21.30;46.90;;;;;;485465;245;2191;-54
2022/10/07 02:17:29;;;;;;;;;;;21.30;46.90;;;;;;485759;245;1362;-53
2022/10/07 02:19:30;;;;;;;;;;;21.30;47.00;;;;;;485297;245;1246;-53
2022/10/07 02:21:32;;;;;;;;;;;21.30;46.90;;;;;;485714;245;1276;-53
2022/10/07 02:23:35;;;;;;;;;;;21.30;46.90;;;;;;485586;245;1324;-54
2022/10/07 02:25:35;;;;;;;;;;;21.30;46.80;;;;;;485314;245;2471;-53
2022/10/07 02:27:36;;;;;;;;;;;21.30;46.80;;;;;;485767;245;1266;-54
2022/10/07 02:29:37;;;;;;;;;;;21.30;46.60;;;;;;485745;245;1165;-54
2022/10/07 02:31:40;;;;;;;;;;;21.30;46.40;;;;;;485770;245;1390;-54
2022/10/07 02:33:41;;;;;;;;;;;21.30;46.20;;;;;;485781;245;2129;-54
2022/10/07 02:35:42;;;;;;;;;;;21.40;46.30;;;;;;485470;245;2191;-53
2022/10/07 02:37:43;;;;;;;;;;;21.40;46.20;;;;;;485756;245;1425;-54
2022/10/07 02:39:45;;;;;;;;;;;21.40;46.10;;;;;;485306;245;1304;-54
2022/10/07 02:41:46;;;;;;;;;;;21.40;46.00;;;;;;485324;245;1221;-53
2022/10/07 02:43:47;;;;;;;;;;;21.40;45.90;;;;;;485637;245;1282;-54
2022/10/07 02:45:49;;;;;;;;;;;21.40;45.90;;;;;;485511;245;1197;-54
2022/10/07 02:47:50;;;;;;;;;;;21.50;45.80;;;;;;485713;245;1446;-54
2022/10/07 02:49:52;;;;;;;;;;;21.50;45.70;;;;;;485264;245;1263;-53
2022/10/07 02:51:53;;;;;;;;;;;21.50;45.70;;;;;;485556;245;1245;-53
2022/10/07 02:53:55;;;;;;;;;;;21.50;45.60;;;;;;485722;245;1289;-54
2022/10/07 02:55:56;;;;;;;;;;;21.50;45.50;;;;;;485729;245;2127;-53
2022/10/07 02:57:57;;;;;;;;;;;21.50;45.50;;;;;;485349;245;1272;-53
2022/10/07 02:59:59;;;;;;;;;;;21.50;45.40;;;;;;485284;245;1556;-54
2022/10/07 03:02:00;;;;;;;;;;;21.50;45.30;;;;;;485363;246;2393;-54
2022/10/07 03:04:01;;;;;;;;;;;21.50;45.30;;;;;;485428;245;1300;-54
2022/10/07 03:06:03;;;;;;;;;;;21.50;45.30;;;;;;485302;245;1227;-54
2022/10/07 03:08:04;;;;;;;;;;;21.50;45.20;;;;;;485308;245;1526;-54
2022/10/07 03:10:05;;;;;;;;;;;21.50;45.10;;;;;;485773;245;1252;-53
2022/10/07 03:12:07;;;;;;;;;;;21.60;45.00;;;;;;485330;245;1222;-54
2022/10/07 03:14:08;;;;;;;;;;;21.50;45.00;;;;;;485728;245;2167;-54
2022/10/07 03:16:09;;;;;;;;;;;21.50;44.90;;;;;;485737;245;2060;-54
2022/10/07 03:18:24;;;;;;;;;;;21.50;44.80;;;;;;485745;245;1256;-53
2022/10/07 03:20:14;;;;;;;;;;;21.50;44.90;;;;;;484433;246;2354;-54
2022/10/07 03:22:14;;;;;;;;;;;21.50;44.80;;;;;;485270;246;2217;-53
2022/10/07 03:24:17;;;;;;;;;;;21.50;44.80;;;;;;485514;245;1255;-54
2022/10/07 03:26:18;;;;;;;;;;;21.50;44.80;;;;;;485385;246;2278;-53
2022/10/07 03:28:19;;;;;;;;;;;21.50;44.70;;;;;;485292;246;2274;-54
2022/10/07 03:30:21;;;;;;;;;;;21.60;44.70;;;;;;485153;245;2207;-53
2022/10/07 03:32:21;;;;;;;;;;;21.60;44.60;;;;;;485250;245;2036;-54
2022/10/07 03:34:23;;;;;;;;;;;21.60;44.70;;;;;;485249;245;2187;-53
2022/10/07 03:36:24;;;;;;;;;;;21.60;44.60;;;;;;485254;245;1709;-54
2022/10/07 03:38:25;;;;;;;;;;;21.50;44.50;;;;;;485434;245;1284;-54
2022/10/07 03:40:27;;;;;;;;;;;21.50;44.50;;;;;;485355;246;1264;-54
2022/10/07 03:42:28;;;;;;;;;;;21.60;44.50;;;;;;485731;245;1216;-53
2022/10/07 03:44:29;;;;;;;;;;;21.50;44.50;;;;;;485312;245;1251;-53
2022/10/07 03:46:31;;;;;;;;;;;21.50;44.40;;;;;;485748;245;1190;-53
2022/10/07 03:48:32;;;;;;;;;;;21.60;44.40;;;;;;485295;245;1219;-54
2022/10/07 03:50:33;;;;;;;;;;;21.60;44.30;;;;;;485782;245;1326;-53
2022/10/07 03:52:35;;;;;;;;;;;21.60;44.20;;;;;;485355;245;1363;-53
2022/10/07 03:54:36;;;;;;;;;;;21.60;44.20;;;;;;485684;245;2180;-53
2022/10/07 03:56:38;;;;;;;;;;;21.60;44.10;;;;;;485768;245;1244;-53
2022/10/07 03:58:39;;;;;;;;;;;21.50;44.10;;;;;;485642;245;1249;-53
2022/10/07 04:00:40;;;;;;;;;;;21.60;44.10;;;;;;485512;245;1300;-53
2022/10/07 04:02:42;;;;;;;;;;;21.60;44.00;;;;;;485311;245;1351;-53
2022/10/07 04:04:43;;;;;;;;;;;21.60;44.00;;;;;;485306;245;1262;-54
2022/10/07 04:06:44;;;;;;;;;;;21.60;44.10;;;;;;485396;245;1284;-54
2022/10/07 04:08:46;;;;;;;;;;;21.60;44.00;;;;;;485794;245;1280;-54
2022/10/07 04:10:47;;;;;;;;;;;21.60;44.00;;;;;;485327;245;1206;-53
2022/10/07 04:12:50;;;;;;;;;;;21.60;43.90;;;;;;485581;245;1290;-53
2022/10/07 04:14:50;;;;;;;;;;;21.60;43.90;;;;;;485400;246;2160;-53
2022/10/07 04:16:51;;;;;;;;;;;21.60;44.00;;;;;;485706;245;1306;-54
2022/10/07 04:18:52;;;;;;;;;;;21.60;44.00;;;;;;485438;245;1304;-54
2022/10/07 04:20:54;;;;;;;;;;;21.50;43.90;;;;;;485696;245;1217;-53
2022/10/07 04:22:55;;;;;;;;;;;21.50;44.00;;;;;;485350;245;2167;-53
2022/10/07 04:27:16;;;;;;;;;;;21.50;44.10;;;;;;485587;246;1332;-54
2022/10/07 04:29:17;;;;;;;;;;;21.60;44.00;;;;;;485758;245;1270;-54
2022/10/07 04:31:18;;;;;;;;;;;21.50;44.00;;;;;;485313;245;1274;-54
2022/10/07 04:33:20;;;;;;;;;;;21.50;43.90;;;;;;485772;245;1235;-54
2022/10/07 04:35:21;;;;;;;;;;;21.60;43.90;;;;;;485632;242;2187;-53
2022/10/07 04:37:22;;;;;;;;;;;21.50;43.80;;;;;;485507;245;1227;-54
2022/10/07 04:39:24;;;;;;;;;;;21.50;43.80;;;;;;485712;245;1217;-53
2022/10/07 04:41:25;;;;;;;;;;;21.50;43.70;;;;;;485570;245;1300;-54
2022/10/07 04:43:32;;;;;;;;;;;21.50;43.70;;;;;;485255;245;1177;-54
2022/10/07 04:45:28;;;;;;;;;;;21.60;43.70;;;;;;484938;246;2538;-54
2022/10/07 04:47:29;;;;;;;;;;;21.60;43.60;;;;;;485340;245;1408;-54
2022/10/07 04:49:31;;;;;;;;;;;21.60;43.60;;;;;;485414;245;1362;-53
2022/10/07 04:51:32;;;;;;;;;;;21.60;43.50;;;;;;485281;245;1223;-54
2022/10/07 04:53:34;;;;;;;;;;;21.60;43.50;;;;;;485690;245;1082;-54
2022/10/07 04:55:36;;;;;;;;;;;21.60;43.50;;;;;;485749;245;2197;-54
2022/10/07 04:57:36;;;;;;;;;;;21.60;43.50;;;;;;485687;246;2228;-53
2022/10/07 04:59:37;;;;;;;;;;;21.60;43.50;;;;;;485273;242;1051;-54
2022/10/07 05:01:38;;;;;;;;;;;21.60;43.50;;;;;;485723;245;1116;-53
2022/10/07 05:03:40;;;;;;;;;;;21.60;43.50;;;;;;485402;245;1122;-54
2022/10/07 05:05:41;;;;;;;;;;;21.60;43.40;;;;;;485746;245;1150;-54
2022/10/07 05:07:43;;;;;;;;;;;21.60;43.40;;;;;;485523;245;1120;-53
2022/10/07 05:09:44;;;;;;;;;;;21.60;43.40;;;;;;485757;245;1351;-54
2022/10/07 05:11:47;;;;;;;;;;;21.60;43.30;;;;;;485366;245;1232;-53
2022/10/07 05:13:47;;;;;;;;;;;21.60;43.20;;;;;;485541;245;1440;-53
2022/10/07 05:15:48;;;;;;;;;;;21.60;43.20;;;;;;485467;245;2186;-54
2022/10/07 05:17:50;;;;;;;;;;;21.60;43.20;;;;;;485740;245;1251;-54
2022/10/07 05:19:51;;;;;;;;;;;21.60;43.20;;;;;;485620;245;2053;-54
2022/10/07 05:21:52;;;;;;;;;;;21.60;43.20;;;;;;485414;245;1235;-53
2022/10/07 05:23:54;;;;;;;;;;;21.60;43.20;;;;;;485327;245;1280;-54
2022/10/07 05:25:55;;;;;;;;;;;21.60;43.10;;;;;;485336;245;1339;-53
2022/10/07 05:27:56;;;;;;;;;;;21.60;43.10;;;;;;485274;245;1218;-53
2022/10/07 05:29:58;;;;;;;;;;;21.60;43.10;;;;;;485479;245;1284;-54
2022/10/07 05:31:59;;;;;;;;;;;21.60;43.00;;;;;;485315;245;1258;-53
2022/10/07 05:34:01;;;;;;;;;;;21.60;43.00;;;;;;485273;245;1247;-53
2022/10/07 05:36:02;;;;;;;;;;;21.60;42.90;;;;;;485151;245;2324;-53
2022/10/07 05:38:03;;;;;;;;;;;21.60;43.00;;;;;;485517;245;1274;-54
2022/10/07 05:40:04;;;;;;;;;;;21.60;43.00;;;;;;485254;245;1231;-54
2022/10/07 05:42:05;;;;;;;;;;;21.60;42.90;;;;;;485282;245;1248;-54
2022/10/07 05:44:07;;;;;;;;;;;21.60;42.80;;;;;;485176;245;1251;-54
2022/10/07 05:46:08;;;;;;;;;;;21.60;42.90;;;;;;485662;245;1197;-53
2022/10/07 05:48:10;;;;;;;;;;;21.60;42.90;;;;;;485079;245;1253;-53
2022/10/07 05:50:11;;;;;;;;;;;21.60;42.90;;;;;;485217;245;1309;-53
2022/10/07 05:52:12;;;;;;;;;;;21.60;43.00;;;;;;485719;245;1150;-53
2022/10/07 05:54:14;;;;;;;;;;;21.60;43.10;;;;;;485232;245;1200;-54
2022/10/07 05:56:15;;;;;;;;;;;21.60;43.00;;;;;;485419;245;2203;-53
2022/10/07 05:58:16;;;;;;;;;;;21.60;43.00;;;;;;485294;245;1265;-53
2022/10/07 06:00:17;;;;;;;;;;;21.60;43.00;;;;;;485370;245;1182;-54
2022/10/07 06:02:19;;;;;;;;;;;21.50;43.00;;;;;;485191;245;1598;-53
2022/10/07 06:04:20;;;;;;;;;;;21.50;43.30;;;;;;485117;245;1291;-53
2022/10/07 06:06:21;;;;;;;;;;;21.50;43.50;;;;;;485251;245;1260;-54
2022/10/07 06:08:23;;;;;;;;;;;21.50;43.60;;;;;;485553;245;1239;-54
2022/10/07 06:15:02;;;;;;;;;;;21.40;43.90;;;;;;485009;244;1173;-53
2022/10/07 06:17:04;;;;;;;;;;;21.40;44.00;;;;;;485082;245;2183;-53
2022/10/07 06:19:21;;;;;;;;;;;21.40;44.10;;;;;;484798;245;1353;-53
2022/10/07 06:21:06;;;;;;;;;;;21.40;44.10;;;;;;483844;246;2010;-53
2022/10/07 06:23:08;;;;;;;;;;;21.40;44.20;;;;;;485241;245;1677;-53
2022/10/07 06:25:09;;;;;;;;;;;21.40;44.30;;;;;;485188;245;1188;-54
2022/10/07 06:27:10;;;;;;;;;;;21.50;44.30;;;;;;484954;245;1365;-53
2022/10/07 06:29:12;;;;;;;;;;;21.40;44.30;;;;;;485169;245;1298;-53
2022/10/07 06:31:14;;;;;;;;;;;21.40;44.30;;;;;;485064;245;1245;-54
2022/10/07 06:33:15;;;;;;;;;;;21.40;44.40;;;;;;485098;245;1281;-53
2022/10/07 06:35:17;;;;;;;;;;;21.50;44.50;;;;;;485445;245;2210;-53
2022/10/07 06:37:19;;;;;;;;;;;21.40;44.50;;;;;;485213;245;1249;-53
2022/10/07 06:39:19;;;;;;;;;;;21.50;44.60;;;;;;484960;245;2248;-54
2022/10/07 06:41:20;;;;;;;;;;;21.40;44.50;;;;;;484995;242;1259;-54
2022/10/07 06:43:22;;;;;;;;;;;21.40;44.60;;;;;;484778;245;1259;-54
2022/10/07 06:45:23;;;;;;;;;;;21.40;44.60;;;;;;484979;245;1215;-53
2022/10/07 06:47:24;;;;;;;;;;;21.50;44.70;;;;;;485128;245;1297;-53
2022/10/07 06:49:26;;;;;;;;;;;21.50;44.70;;;;;;485091;245;1218;-53
2022/10/07 06:51:27;;;;;;;;;;;21.50;44.70;;;;;;484969;245;1238;-53
2022/10/07 06:53:28;;;;;;;;;;;21.40;44.80;;;;;;485119;245;1205;-53
2022/10/07 06:55:30;;;;;;;;;;;21.40;44.80;;;;;;484895;245;2152;-53
2022/10/07 06:57:32;;;;;;;;;;;21.40;44.90;;;;;;485257;245;1244;-53
2022/10/07 06:59:33;;;;;;;;;;;21.50;44.90;;;;;;484841;242;1228;-53
2022/10/07 07:01:34;;;;;;;;;;;21.50;45.00;;;;;;484908;245;1274;-53
2022/10/07 07:03:35;;;;;;;;;;;21.40;44.90;;;;;;485198;245;1302;-54
2022/10/07 07:05:37;;;;;;;;;;;21.40;45.00;;;;;;484632;245;1303;-53
2022/10/07 07:07:38;;;;;;;;;;;21.50;45.00;;;;;;484788;245;1337;-53
2022/10/07 07:09:39;;;;;;;;;;;21.50;45.10;;;;;;484621;245;1215;-54
2022/10/07 07:11:43;;;;;;;;;;;21.40;45.10;;;;;;484693;245;1262;-54
2022/10/07 07:13:42;;;;;;;;;;;21.40;45.10;;;;;;484881;246;2314;-53
2022/10/07 07:15:43;;;;;;;;;;;21.50;45.20;;;;;;484844;245;2191;-53
2022/10/07 07:17:45;;;;;;;;;;;21.40;45.20;;;;;;485344;245;1219;-53
2022/10/07 07:19:46;;;;;;;;;;;21.50;45.20;;;;;;485070;245;1246;-53
2022/10/07 07:21:47;;;;;;;;;;;21.50;45.20;;;;;;484971;245;1242;-54
2022/10/07 07:23:49;;;;;;;;;;;21.40;45.30;;;;;;485410;245;1244;-54
2022/10/07 07:25:50;;;;;;;;;;;21.50;45.40;;;;;;485249;245;2119;-53
2022/10/07 07:27:53;;;;;;;;;;;21.40;45.40;;;;;;485011;245;1253;-54
2022/10/07 07:29:53;;;;;;;;;;;21.40;45.40;;;;;;484857;246;2073;-53
2022/10/07 07:31:54;;;;;;;;;;;21.40;45.40;;;;;;485022;245;1215;-53
2022/10/07 07:33:55;;;;;;;;;;;21.40;45.40;;;;;;484886;245;1288;-53
2022/10/07 07:35:57;;;;;;;;;;;21.50;45.50;;;;;;484883;245;2199;-53
2022/10/07 07:37:58;;;;;;;;;;;21.40;45.50;;;;;;484989;245;1552;-54
2022/10/07 07:39:59;;;;;;;;;;;21.40;45.60;;;;;;484850;245;1351;-53
2022/10/07 07:42:01;;;;;;;;;;;21.50;45.60;;;;;;484869;245;1362;-53
2022/10/07 07:44:02;;;;;;;;;;;21.40;45.60;;;;;;485067;242;1852;-53
2022/10/07 07:46:04;;;;;;;;;;;21.40;45.60;;;;;;484924;245;1235;-53
2022/10/07 07:48:05;;;;;;;;;;;21.50;45.70;;;;;;485064;245;1209;-53
2022/10/07 07:50:07;;;;;;;;;;;21.50;45.70;;;;;;485008;245;1274;-53
2022/10/07 07:52:08;;;;;;;;;;;21.50;45.70;;;;;;484973;245;1350;-53
2022/10/07 07:54:09;;;;;;;;;;;21.50;45.80;;;;;;484829;245;1198;-54
2022/10/07 07:56:10;;;;;;;;;;;21.50;45.80;;;;;;484794;245;2203;-53
2022/10/07 07:58:12;;;;;;;;;;;21.50;45.80;;;;;;484921;245;1316;-53
2022/10/07 08:00:14;;;;;;;;;;;21.40;45.80;;;;;;484878;245;1264;-54
2022/10/07 08:02:15;;;;;;;;;;;21.50;45.80;;;;;;484621;246;1457;-53
2022/10/07 08:04:16;;;;;;;;;;;21.50;45.90;;;;;;484798;245;1273;-54
2022/10/07 08:06:18;;;;;;;;;;;21.50;45.90;;;;;;484579;245;1648;-53
2022/10/07 08:08:19;;;;;;;;;;;21.50;45.90;;;;;;485001;245;1282;-54
2022/10/07 08:10:20;;;;;;;;;;;21.50;45.90;;;;;;485075;245;1239;-54
2022/10/07 08:12:22;;;;;;;;;;;21.50;46.00;;;;;;485148;245;1282;-53
2022/10/07 08:14:23;;;;;;;;;;;21.50;46.00;;;;;;484901;246;2433;-54
2022/10/07 08:16:24;;;;;;;;;;;21.50;46.00;;;;;;484839;245;2157;-53
2022/10/07 08:18:25;;;;;;;;;;;21.50;46.00;;;;;;484842;245;1257;-54
2022/10/07 08:20:27;;;;;;;;;;;21.50;46.10;;;;;;485081;245;1204;-53
2022/10/07 08:22:28;;;;;;;;;;;21.50;46.10;;;;;;485149;245;1309;-53
2022/10/07 08:24:29;;;;;;;;;;;21.50;46.10;;;;;;484766;245;1403;-53
2022/10/07 08:26:31;;;;;;;;;;;21.50;46.10;;;;;;485055;245;1294;-53
2022/10/07 08:28:32;;;;;;;;;;;21.50;46.20;;;;;;485022;245;1241;-53
2022/10/07 08:30:34;;;;;;;;;;;21.50;46.20;;;;;;484914;245;1272;-53
2022/10/07 08:32:35;;;;;;;;;;;21.50;46.30;;;;;;485183;246;2373;-53
2022/10/07 08:34:36;;;;;;;;;;;21.50;46.30;;;;;;485052;245;1204;-53
2022/10/07 08:36:38;;;;;;;;;;;21.50;46.30;;;;;;484859;245;2168;-53
2022/10/07 08:38:39;;;;;;;;;;;21.50;46.30;;;;;;485058;245;2260;-53
2022/10/07 08:40:40;;;;;;;;;;;21.50;46.30;;;;;;484975;245;1219;-53
2022/10/07 08:42:41;;;;;;;;;;;21.50;46.30;;;;;;485052;245;1226;-53
2022/10/07 08:44:43;;;;;;;;;;;21.50;46.30;;;;;;485397;245;1213;-53
2022/10/07 08:46:44;;;;;;;;;;;21.50;46.30;;;;;;484992;245;1649;-53
2022/10/07 08:48:45;;;;;;;;;;;21.50;46.40;;;;;;485256;245;1251;-54
2022/10/07 08:50:47;;;;;;;;;;;21.50;46.40;;;;;;485022;245;1207;-54
2022/10/07 08:52:49;;;;;;;;;;;21.50;46.40;;;;;;485334;245;1276;-54
2022/10/07 08:54:50;;;;;;;;;;;21.50;46.50;;;;;;484940;245;2187;-54
2022/10/07 08:56:52;;;;;;;;;;;21.50;46.50;;;;;;485066;242;2223;-54
2022/10/07 08:58:53;;;;;;;;;;;21.50;46.50;;;;;;485085;245;2352;-53
2022/10/07 09:00:54;;;;;;;;;;;21.50;46.50;;;;;;485149;245;1271;-53
2022/10/07 09:02:55;;;;;;;;;;;21.50;46.50;;;;;;485053;245;1695;-54
2022/10/07 09:04:56;;;;;;;;;;;21.50;46.60;;;;;;484852;245;1300;-54
2022/10/07 09:06:59;;;;;;;;;;;21.50;46.60;;;;;;484962;245;1235;-53
2022/10/07 09:09:01;;;;;;;;;;;21.50;46.60;;;;;;484752;246;1715;-53
2022/10/07 09:11:14;;;;;;;;;;;21.50;46.60;;;;;;484752;245;1988;-54
2022/10/07 09:13:02;;;;;;;;;;;21.50;46.70;;;;;;483980;246;2628;-53
2022/10/07 09:15:03;;;;;;;;;;;21.50;46.70;;;;;;485150;245;1363;-54
2022/10/07 09:17:05;;;;;;;;;;;21.50;46.70;;;;;;484809;245;2211;-53
2022/10/07 09:19:06;;;;;;;;;;;21.50;46.70;;;;;;484993;245;1231;-54
2022/10/07 09:21:07;;;;;;;;;;;21.50;46.70;;;;;;484761;245;1275;-53
2022/10/07 09:23:09;;;;;;;;;;;21.50;46.70;;;;;;485131;245;1148;-53
2022/10/07 09:25:10;;;;;;;;;;;21.60;46.80;;;;;;484809;245;1192;-53
2022/10/07 09:27:11;;;;;;;;;;;21.50;46.70;;;;;;484941;245;1132;-54
2022/10/07 09:29:12;;;;;;;;;;;21.50;46.80;;;;;;485199;245;1071;-53
2022/10/07 09:31:14;;;;;;;;;;;21.50;46.80;;;;;;485136;245;1230;-53
2022/10/07 09:33:15;;;;;;;;;;;21.50;46.80;;;;;;485070;245;1143;-53
2022/10/07 09:35:17;;;;;;;;;;;21.50;46.90;;;;;;484844;245;1149;-53
2022/10/07 09:37:18;;;;;;;;;;;21.50;46.90;;;;;;485046;245;2191;-53
2022/10/07 09:39:20;;;;;;;;;;;21.50;46.90;;;;;;484895;245;1296;-54
2022/10/07 09:41:21;;;;;;;;;;;21.50;46.90;;;;;;484910;245;1167;-54
2022/10/07 09:43:22;;;;;;;;;;;21.50;47.00;;;;;;485020;245;1219;-53
2022/10/07 09:45:24;;;;;;;;;;;21.50;47.00;;;;;;484870;245;1234;-53
2022/10/07 09:47:25;;;;;;;;;;;21.50;47.00;;;;;;484968;245;1327;-54
2022/10/07 09:49:26;;;;;;;;;;;21.50;47.00;;;;;;484951;245;1265;-53
2022/10/07 09:51:28;;;;;;;;;;;21.50;47.00;;;;;;485077;245;1243;-53
2022/10/07 09:53:29;;;;;;;;;;;21.50;47.10;;;;;;485176;245;1202;-53
2022/10/07 09:55:36;;;;;;;;;;;21.50;47.10;;;;;;485093;245;1222;-53
2022/10/07 09:57:32;;;;;;;;;;;21.50;47.10;;;;;;484690;246;2199;-53
2022/10/07 09:59:34;;;;;;;;;;;21.50;47.10;;;;;;485074;245;1512;-53
2022/10/07 10:01:35;;;;;;;;;;;21.50;47.10;;;;;;484857;245;1235;-53
2022/10/07 10:03:36;;;;;;;;;;;21.50;47.10;;;;;;485391;245;1267;-53
2022/10/07 10:05:37;;;;;;;;;;;21.50;47.10;;;;;;484947;245;1296;-54
2022/10/07 10:07:39;;;;;;;;;;;21.50;47.20;;;;;;484948;245;1217;-53
2022/10/07 10:09:40;;;;;;;;;;;21.50;47.20;;;;;;484962;245;1210;-54
2022/10/07 10:11:41;;;;;;;;;;;21.50;47.20;;;;;;485001;245;1275;-53
2022/10/07 10:13:43;;;;;;;;;;;21.50;47.20;;;;;;484950;245;1384;-53
2022/10/07 10:15:44;;;;;;;;;;;21.50;47.20;;;;;;485109;245;1258;-54
2022/10/07 10:17:46;;;;;;;;;;;21.50;47.20;;;;;;485016;245;2140;-53
2022/10/07 10:19:47;;;;;;;;;;;21.50;47.30;;;;;;485116;245;1841;-53
2022/10/07 10:21:48;;;;;;;;;;;21.50;47.30;;;;;;484828;245;1249;-53
2022/10/07 10:23:49;;;;;;;;;;;21.50;47.30;;;;;;485011;245;1210;-53
2022/10/07 10:28:10;;;;;;;;;;;21.50;47.30;;;;;;484924;246;1223;-53
2022/10/07 10:30:12;;;;;;;;;;;21.50;47.40;;;;;;485044;245;1278;-53
2022/10/07 10:32:14;;;;;;;;;;;21.50;47.40;;;;;;485095;245;1234;-53
2022/10/07 10:34:14;;;;;;;;;;;21.50;47.40;;;;;;484981;246;1955;-53
2022/10/07 10:36:16;;;;;;;;;;;21.50;47.40;;;;;;485391;245;1188;-53
2022/10/07 10:38:17;;;;;;;;;;;21.50;47.50;;;;;;484887;245;2191;-54
2022/10/07 10:40:18;;;;;;;;;;;21.50;47.50;;;;;;484826;245;1559;-54
2022/10/07 10:42:21;;;;;;;;;;;21.50;47.40;;;;;;484890;245;1364;-53
2022/10/07 10:44:21;;;;;;;;;;;21.50;47.40;;;;;;484871;246;2239;-54
2022/10/07 10:46:22;;;;;;;;;;;21.50;47.50;;;;;;484939;245;1237;-53
2022/10/07 10:48:24;;;;;;;;;;;21.50;47.50;;;;;;485253;245;1197;-53
2022/10/07 10:50:25;;;;;;;;;;;21.50;47.50;;;;;;485043;245;1414;-53
2022/10/07 10:52:26;;;;;;;;;;;21.50;47.60;;;;;;485049;245;1205;-53
2022/10/07 10:54:29;;;;;;;;;;;21.50;47.50;;;;;;485042;242;1311;-54
2022/10/07 10:56:30;;;;;;;;;;;21.50;47.50;;;;;;485104;246;2362;-54
2022/10/07 10:58:30;;;;;;;;;;;21.50;47.60;;;;;;485048;245;2262;-53
2022/10/07 11:00:32;;;;;;;;;;;21.50;47.60;;;;;;485033;245;1264;-54
2022/10/07 11:02:33;;;;;;;;;;;21.50;47.60;;;;;;485027;245;1224;-53
2022/10/07 11:04:34;;;;;;;;;;;21.50;47.60;;;;;;485173;245;1201;-53
2022/10/07 11:06:35;;;;;;;;;;;21.50;47.70;;;;;;485119;245;1190;-54
2022/10/07 11:08:37;;;;;;;;;;;21.50;47.70;;;;;;485155;245;1351;-53
2022/10/07 11:10:39;;;;;;;;;;;21.50;47.70;;;;;;485035;245;1272;-53
2022/10/07 11:12:40;;;;;;;;;;;21.50;47.80;;;;;;484841;245;1875;-53
2022/10/07 11:14:41;;;;;;;;;;;21.50;47.80;;;;;;484887;245;1303;-53
2022/10/07 11:16:43;;;;;;;;;;;21.50;47.80;;;;;;484814;245;2107;-53
2022/10/07 11:18:45;;;;;;;;;;;21.50;47.80;;;;;;484830;245;2320;-53
2022/10/07 11:20:47;;;;;;;;;;;21.50;47.80;;;;;;484822;245;1297;-53
2022/10/07 11:22:49;;;;;;;;;;;21.50;47.80;;;;;;485025;245;1368;-53
2022/10/07 11:24:50;;;;;;;;;;;21.50;47.80;;;;;;485052;245;2333;-53
2022/10/07 11:26:52;;;;;;;;;;;21.50;47.80;;;;;;484980;245;1226;-54
2022/10/07 11:28:53;;;;;;;;;;;21.50;47.80;;;;;;484902;245;2378;-53
2022/10/07 11:30:54;;;;;;;;;;;21.50;47.90;;;;;;484910;245;1300;-53
2022/10/07 11:32:56;;;;;;;;;;;21.50;47.80;;;;;;485017;245;1519;-53
2022/10/07 11:34:57;;;;;;;;;;;21.50;47.80;;;;;;484911;245;1679;-54
2022/10/07 11:37:01;;;;;;;;;;;21.50;47.90;;;;;;485102;245;1302;-54
2022/10/07 11:39:00;;;;;;;;;;;21.50;47.90;;;;;;484762;243;2145;-53
2022/10/07 11:41:01;;;;;;;;;;;21.50;47.90;;;;;;484846;245;1211;-54
2022/10/07 11:43:04;;;;;;;;;;;21.60;47.90;;;;;;484921;245;1259;-53
2022/10/07 11:45:04;;;;;;;;;;;21.60;47.90;;;;;;484643;246;2270;-54
2022/10/07 11:47:05;;;;;;;;;;;21.60;47.90;;;;;;485161;245;1275;-53
2022/10/07 11:49:06;;;;;;;;;;;21.60;47.90;;;;;;485019;245;1188;-54
2022/10/07 11:51:08;;;;;;;;;;;21.50;47.90;;;;;;484904;245;1377;-53
2022/10/07 11:53:09;;;;;;;;;;;21.50;48.00;;;;;;484886;245;1644;-53
2022/10/07 11:55:10;;;;;;;;;;;21.50;48.00;;;;;;485013;245;1505;-53
2022/10/07 11:57:12;;;;;;;;;;;21.50;47.90;;;;;;484975;245;2206;-54
2022/10/07 11:59:13;;;;;;;;;;;21.50;48.00;;;;;;485058;245;1513;-53
2022/10/07 12:01:14;;;;;;;;;;;21.50;48.00;;;;;;485229;245;2097;-53
2022/10/07 12:03:16;;;;;;;;;;;21.50;48.00;;;;;;484993;245;1172;-53
2022/10/07 12:05:17;;;;;;;;;;;21.50;48.10;;;;;;485034;245;1135;-54
2022/10/07 12:07:18;;;;;;;;;;;21.50;48.00;;;;;;484988;245;1088;-53